createdAt,value
2019-02-09T00:02:07.641Z,6.78
2019-02-09T00:04:38.236Z,6.81
2019-02-09T00:07:08.712Z,6.83
2019-02-09T00:09:39.165Z,6.61
2019-02-09T00:12:09.772Z,6.70
2019-02-09T00:14:40.233Z,6.73
2019-02-09T00:17:10.694Z,6.76
2019-02-09T00:19:41.190Z,6.74
2019-02-09T00:22:11.898Z,6.67
2019-02-09T00:24:42.354Z,6.72
2019-02-09T00:27:12.962Z,6.68
2019-02-09T00:29:46.369Z,6.68
2019-02-09T00:32:15.665Z,6.54
2019-02-09T00:34:46.139Z,6.56
2019-02-09T00:37:16.638Z,6.54
2019-02-09T00:39:47.130Z,6.50
2019-02-09T00:42:17.629Z,6.50
2019-02-09T00:44:48.083Z,6.54
2019-02-09T00:47:18.620Z,6.44
2019-02-09T00:49:49.059Z,6.49
2019-02-09T00:52:19.567Z,6.47
2019-02-09T00:54:50.036Z,6.43
2019-02-09T00:57:20.541Z,6.45
2019-02-09T00:59:54.208Z,6.46
2019-02-09T01:02:23.202Z,6.42
2019-02-09T01:04:53.803Z,6.47
2019-02-09T01:07:24.502Z,6.46
2019-02-09T01:09:55.345Z,6.46
2019-02-09T01:12:25.911Z,6.47
2019-02-09T01:14:56.415Z,6.49
2019-02-09T01:17:26.878Z,6.48
2019-02-09T01:19:57.385Z,6.42
2019-02-09T01:22:27.842Z,6.41
2019-02-09T01:24:58.347Z,6.31
2019-02-09T01:27:28.800Z,6.42
2019-02-09T01:30:02.514Z,6.34
2019-02-09T01:32:31.670Z,6.31
2019-02-09T01:35:02.285Z,6.26
2019-02-09T01:37:32.892Z,6.34
2019-02-09T01:40:03.496Z,6.26
2019-02-09T01:42:33.954Z,6.28
2019-02-09T01:45:05.373Z,6.29
2019-02-09T01:47:35.842Z,6.23
2019-02-09T01:50:08.513Z,6.28
2019-02-09T01:52:39.009Z,6.25
2019-02-09T01:55:09.897Z,6.25
2019-02-09T01:57:40.506Z,6.19
2019-02-09T02:00:16.505Z,6.22
2019-02-09T02:02:47.905Z,6.24
2019-02-09T02:05:19.023Z,6.23
2019-02-09T02:07:49.598Z,6.25
2019-02-09T02:10:36.919Z,6.25
2019-02-09T02:13:09.397Z,6.16
2019-02-09T02:15:41.004Z,6.16
2019-02-09T02:18:12.090Z,6.18
2019-02-09T02:20:42.567Z,4.54
2019-02-09T02:23:13.124Z,6.13
2019-02-09T02:25:43.730Z,6.18
2019-02-09T02:28:14.193Z,6.18
2019-02-09T02:30:44.792Z,6.19
2019-02-09T02:33:15.296Z,6.14
2019-02-09T02:35:45.955Z,6.13
2019-02-09T02:38:16.444Z,6.15
2019-02-09T02:40:46.913Z,6.17
2019-02-09T02:43:17.416Z,6.19
2019-02-09T02:45:47.884Z,6.14
2019-02-09T02:48:18.393Z,6.10
2019-02-09T02:50:48.848Z,6.10
2019-02-09T02:53:19.358Z,6.14
2019-02-09T02:55:49.853Z,6.08
2019-02-09T02:58:20.352Z,6.10
2019-02-09T03:00:50.851Z,6.03
2019-02-09T03:03:21.462Z,6.08
2019-02-09T03:05:52.011Z,6.12
2019-02-09T03:08:22.604Z,6.13
2019-02-09T03:10:53.089Z,6.10
2019-02-09T03:13:23.553Z,6.16
2019-02-09T03:15:54.066Z,6.18
2019-02-09T03:18:24.564Z,6.18
2019-02-09T03:20:55.198Z,6.18
2019-02-09T03:23:25.648Z,6.16
2019-02-09T03:25:56.151Z,6.21
2019-02-09T03:28:26.603Z,6.23
2019-02-09T03:30:57.194Z,6.20
2019-02-09T03:33:27.652Z,6.23
2019-02-09T03:35:58.199Z,6.27
2019-02-09T03:38:28.662Z,6.26
2019-02-09T03:40:59.123Z,6.31
2019-02-09T03:43:29.626Z,6.29
2019-02-09T03:46:00.099Z,6.28
2019-02-09T03:48:30.594Z,6.30
2019-02-09T03:51:01.150Z,6.28
2019-02-09T03:53:31.658Z,6.23
2019-02-09T03:56:02.119Z,6.25
2019-02-09T03:58:32.713Z,6.29
2019-02-09T04:01:03.235Z,6.28
2019-02-09T04:03:33.897Z,6.23
2019-02-09T04:06:04.675Z,6.29
2019-02-09T04:08:35.149Z,6.28
2019-02-09T04:11:05.766Z,6.32
2019-02-09T04:13:36.265Z,6.26
2019-02-09T04:16:06.774Z,6.27
2019-02-09T04:18:37.246Z,6.18
2019-02-09T04:21:07.871Z,6.23
2019-02-09T04:23:38.342Z,6.25
2019-02-09T04:26:08.863Z,6.27
2019-02-09T04:28:39.331Z,6.25
2019-02-09T04:31:09.830Z,6.27
2019-02-09T04:33:40.346Z,6.26
2019-02-09T04:36:10.904Z,6.20
2019-02-09T04:38:41.404Z,6.24
2019-02-09T04:41:12.001Z,6.25
2019-02-09T04:43:42.661Z,6.25
2019-02-09T04:46:13.260Z,6.25
2019-02-09T04:48:43.776Z,6.26
2019-02-09T04:51:14.279Z,6.26
2019-02-09T04:53:44.873Z,6.30
2019-02-09T04:56:15.376Z,6.30
2019-02-09T04:58:45.831Z,6.34
2019-02-09T05:01:16.386Z,6.35
2019-02-09T05:03:47.000Z,6.33
2019-02-09T05:06:17.447Z,6.27
2019-02-09T05:08:47.959Z,6.34
2019-02-09T05:11:18.471Z,6.29
2019-02-09T05:13:48.970Z,6.34
2019-02-09T05:16:19.430Z,6.32
2019-02-09T05:18:49.937Z,6.33
2019-02-09T05:21:20.433Z,6.29
2019-02-09T05:23:50.893Z,6.22
2019-02-09T05:26:21.405Z,6.22
2019-02-09T05:28:51.867Z,6.21
2019-02-09T05:31:23.408Z,6.20
2019-02-09T05:33:54.310Z,6.16
2019-02-09T05:36:24.845Z,6.16
2019-02-09T05:38:55.334Z,6.15
2019-02-09T05:41:25.831Z,6.09
2019-02-09T05:43:56.337Z,6.04
2019-02-09T05:46:26.794Z,6.01
2019-02-09T05:48:57.294Z,6.05
2019-02-09T05:51:27.784Z,6.04
2019-02-09T05:53:58.247Z,6.06
2019-02-09T05:56:28.746Z,5.99
2019-02-09T05:58:59.251Z,5.94
2019-02-09T06:01:32.010Z,5.96
2019-02-09T06:04:01.935Z,5.88
2019-02-09T06:06:32.405Z,5.85
2019-02-09T06:09:04.348Z,5.83
2019-02-09T06:11:34.846Z,5.82
2019-02-09T06:14:05.756Z,5.87
2019-02-09T06:16:36.214Z,5.80
2019-02-09T06:19:06.677Z,5.83
2019-02-09T06:21:37.179Z,5.88
2019-02-09T06:24:07.647Z,5.87
2019-02-09T06:26:38.158Z,5.79
2019-02-09T06:29:08.657Z,5.86
2019-02-09T06:31:40.837Z,5.84
2019-02-09T06:34:11.320Z,5.86
2019-02-09T06:36:41.841Z,5.92
2019-02-09T06:39:12.318Z,5.94
2019-02-09T06:41:42.783Z,5.95
2019-02-09T06:44:13.285Z,6.01
2019-02-09T06:46:43.758Z,6.02
2019-02-09T06:49:14.280Z,6.04
2019-02-09T06:51:44.730Z,6.07
2019-02-09T06:54:15.196Z,5.98
2019-02-09T06:56:45.658Z,6.04
2019-02-09T06:59:16.163Z,6.13
2019-02-09T07:01:48.839Z,6.18
2019-02-09T07:04:18.843Z,6.08
2019-02-09T07:06:49.297Z,6.19
2019-02-09T07:09:19.807Z,6.26
2019-02-09T07:11:50.265Z,6.33
2019-02-09T07:14:20.776Z,6.40
2019-02-09T07:16:51.237Z,6.45
2019-02-09T07:19:21.733Z,6.52
2019-02-09T07:21:52.201Z,6.50
2019-02-09T07:24:22.754Z,6.56
2019-02-09T07:26:53.283Z,6.53
2019-02-09T07:29:23.805Z,6.58
2019-02-09T07:31:56.545Z,6.61
2019-02-09T07:34:26.477Z,6.67
2019-02-09T07:36:56.941Z,6.73
2019-02-09T07:39:27.451Z,6.72
2019-02-09T07:41:57.931Z,6.82
2019-02-09T07:44:28.422Z,6.89
2019-02-09T07:46:58.933Z,6.96
2019-02-09T07:49:29.530Z,6.99
2019-02-09T07:51:59.977Z,7.00
2019-02-09T07:54:30.473Z,7.11
2019-02-09T07:57:00.934Z,7.16
2019-02-09T07:59:31.440Z,7.22
2019-02-09T08:02:04.523Z,7.27
2019-02-09T08:04:34.109Z,7.38
2019-02-09T08:07:04.714Z,7.40
2019-02-09T08:09:35.205Z,7.47
2019-02-09T08:12:06.192Z,7.60
2019-02-09T08:14:36.754Z,7.64
2019-02-09T08:17:07.302Z,7.78
2019-02-09T08:19:37.807Z,7.78
2019-02-09T08:22:08.384Z,7.78
2019-02-09T08:24:38.921Z,7.88
2019-02-09T08:27:09.366Z,7.92
2019-02-09T08:29:39.938Z,7.93
2019-02-09T08:32:12.854Z,7.91
2019-02-09T08:34:42.809Z,7.97
2019-02-09T08:37:13.270Z,8.14
2019-02-09T08:39:43.904Z,8.11
2019-02-09T08:42:14.367Z,8.00
2019-02-09T08:44:45.048Z,8.10
2019-02-09T08:47:15.566Z,8.17
2019-02-09T08:49:46.038Z,8.00
2019-02-09T08:52:16.546Z,8.12
2019-02-09T08:54:47.106Z,8.13
2019-02-09T08:57:17.602Z,8.28
2019-02-09T08:59:48.198Z,8.39
2019-02-09T09:02:20.632Z,8.53
2019-02-09T09:04:50.815Z,8.60
2019-02-09T09:07:21.421Z,8.67
2019-02-09T09:09:51.898Z,8.66
2019-02-09T09:12:22.399Z,8.78
2019-02-09T09:14:52.863Z,8.69
2019-02-09T09:17:23.329Z,8.81
2019-02-09T09:19:53.789Z,8.97
2019-02-09T09:22:24.279Z,9.05
2019-02-09T09:24:55.021Z,9.13
2019-02-09T09:27:25.521Z,9.32
2019-02-09T09:29:55.986Z,9.28
2019-02-09T09:32:28.762Z,9.44
2019-02-09T09:34:58.673Z,9.63
2019-02-09T09:37:29.201Z,9.67
2019-02-09T09:39:59.667Z,9.57
2019-02-09T09:42:30.131Z,9.63
2019-02-09T09:45:00.647Z,9.61
2019-02-09T09:47:31.166Z,9.72
2019-02-09T09:50:01.664Z,9.83
2019-02-09T09:52:32.123Z,9.82
2019-02-09T09:55:02.631Z,9.98
2019-02-09T09:57:33.097Z,10.07
2019-02-09T10:00:03.612Z,9.84
2019-02-09T10:02:36.557Z,9.79
2019-02-09T10:05:07.617Z,9.54
2019-02-09T10:07:38.068Z,9.69
2019-02-09T10:10:10.414Z,9.62
2019-02-09T10:12:40.925Z,9.52
2019-02-09T10:15:13.374Z,9.52
2019-02-09T10:17:44.090Z,9.80
2019-02-09T10:20:17.380Z,9.94
2019-02-09T10:22:48.002Z,10.01
2019-02-09T10:25:19.406Z,10.04
2019-02-09T10:27:50.441Z,9.99
2019-02-09T10:30:25.639Z,10.06
2019-02-09T10:32:56.234Z,10.13
2019-02-09T10:35:26.816Z,10.23
2019-02-09T10:37:57.344Z,10.39
2019-02-09T10:40:29.726Z,10.44
2019-02-09T10:43:00.830Z,10.44
2019-02-09T10:45:31.655Z,10.31
2019-02-09T10:48:02.888Z,10.50
2019-02-09T10:50:38.462Z,10.59
2019-02-09T10:53:09.218Z,10.43
2019-02-09T10:55:39.787Z,10.30
2019-02-09T10:58:10.690Z,10.44
2019-02-09T11:01:16.157Z,10.35
2019-02-09T11:03:46.676Z,10.56
2019-02-09T11:06:17.353Z,10.53
2019-02-09T11:08:47.828Z,10.71
2019-02-09T11:11:18.304Z,10.71
2019-02-09T11:13:48.812Z,10.69
2019-02-09T11:16:19.271Z,10.88
2019-02-09T11:18:50.171Z,10.85
2019-02-09T11:21:20.691Z,11.05
2019-02-09T11:23:51.157Z,11.10
2019-02-09T11:26:21.819Z,11.17
2019-02-09T11:29:10.581Z,11.07
2019-02-09T11:31:42.822Z,11.05
2019-02-09T11:34:13.443Z,10.92
2019-02-09T11:36:44.389Z,10.87
2019-02-09T11:39:16.232Z,10.93
2019-02-09T11:41:46.786Z,10.95
2019-02-09T11:44:17.296Z,10.97
2019-02-09T11:46:47.827Z,10.96
2019-02-09T11:49:18.305Z,10.49
2019-02-09T11:51:48.780Z,10.68
2019-02-09T11:54:19.297Z,10.63
2019-02-09T11:56:49.770Z,10.68
2019-02-09T11:59:21.331Z,10.61
2019-02-09T12:01:52.109Z,10.60
2019-02-09T12:04:22.594Z,10.72
2019-02-09T12:06:53.077Z,10.84
2019-02-09T12:09:23.631Z,10.82
2019-02-09T12:11:54.120Z,10.85
2019-02-09T12:14:24.629Z,10.87
2019-02-09T12:16:55.195Z,10.67
2019-02-09T12:19:25.669Z,10.92
2019-02-09T12:21:56.193Z,10.99
2019-02-09T12:24:26.766Z,10.95
2019-02-09T12:26:57.378Z,11.08
2019-02-09T12:29:27.848Z,11.15
2019-02-09T12:31:58.451Z,11.16
2019-02-09T12:34:28.930Z,11.09
2019-02-09T12:36:59.435Z,11.07
2019-02-09T12:39:29.978Z,11.03
2019-02-09T12:42:00.493Z,10.95
2019-02-09T12:44:30.952Z,10.75
2019-02-09T12:47:02.440Z,10.82
2019-02-09T12:49:32.919Z,10.84
2019-02-09T12:52:03.389Z,10.91
2019-02-09T12:54:33.891Z,10.80
2019-02-09T12:57:04.446Z,10.86
2019-02-09T12:59:35.046Z,10.72
2019-02-09T13:02:05.655Z,10.81
2019-02-09T13:04:36.222Z,10.96
2019-02-09T13:07:06.737Z,10.97
2019-02-09T13:09:37.205Z,10.91
2019-02-09T13:12:07.731Z,10.92
2019-02-09T13:14:38.303Z,10.78
2019-02-09T13:17:08.926Z,10.82
2019-02-09T13:19:39.442Z,10.78
2019-02-09T13:22:09.913Z,10.68
2019-02-09T13:24:40.375Z,10.68
2019-02-09T13:27:10.848Z,10.72
2019-02-09T13:29:41.375Z,10.65
2019-02-09T13:32:11.890Z,10.74
2019-02-09T13:34:42.370Z,10.52
2019-02-09T13:37:12.846Z,10.26
2019-02-09T13:39:43.400Z,10.31
2019-02-09T13:42:13.938Z,10.35
2019-02-09T13:44:44.393Z,10.47
2019-02-09T13:47:14.991Z,10.30
2019-02-09T13:49:45.450Z,10.29
2019-02-09T13:52:15.956Z,10.19
2019-02-09T13:54:46.595Z,10.21
2019-02-09T13:57:17.052Z,10.13
2019-02-09T13:59:47.570Z,10.18
2019-02-09T14:02:18.051Z,10.13
2019-02-09T14:04:48.579Z,10.15
2019-02-09T14:07:19.059Z,10.05
2019-02-09T14:09:49.565Z,9.97
2019-02-09T14:12:20.034Z,10.01
2019-02-09T14:14:50.554Z,10.06
2019-02-09T14:17:21.032Z,10.12
2019-02-09T14:19:51.561Z,10.18
2019-02-09T14:22:22.018Z,10.12
2019-02-09T14:24:52.527Z,10.00
2019-02-09T14:27:24.681Z,10.05
2019-02-09T14:29:55.195Z,10.03
2019-02-09T14:32:25.763Z,10.09
2019-02-09T14:34:56.284Z,10.08
2019-02-09T14:37:26.767Z,10.06
2019-02-09T14:39:57.293Z,10.05
2019-02-09T14:42:27.799Z,10.03
2019-02-09T14:44:58.262Z,9.96
2019-02-09T14:47:28.723Z,9.96
2019-02-09T14:49:59.790Z,9.88
2019-02-09T14:52:30.414Z,9.74
2019-02-09T14:55:00.870Z,9.74
2019-02-09T14:57:31.366Z,8.93
2019-02-09T15:00:01.904Z,9.69
2019-02-09T15:02:32.509Z,9.69
2019-02-09T15:05:02.976Z,9.66
2019-02-09T15:07:33.521Z,9.61
2019-02-09T15:10:04.875Z,9.60
2019-02-09T15:12:35.421Z,9.57
2019-02-09T15:15:09.224Z,9.48
2019-02-09T15:17:39.730Z,9.45
2019-02-09T15:20:14.291Z,9.41
2019-02-09T15:22:44.922Z,9.35
2019-02-09T15:25:15.661Z,9.30
2019-02-09T15:27:46.159Z,9.26
2019-02-09T15:30:20.213Z,9.21
2019-02-09T15:32:50.728Z,9.14
2019-02-09T15:35:21.507Z,9.09
2019-02-09T15:37:51.965Z,9.00
2019-02-09T15:40:22.621Z,8.92
2019-02-09T15:42:53.173Z,8.82
2019-02-09T15:45:24.003Z,8.76
2019-02-09T15:47:54.449Z,8.68
2019-02-09T15:50:24.953Z,8.62
2019-02-09T15:52:55.413Z,7.55
2019-02-09T15:55:26.127Z,8.42
2019-02-09T15:57:56.598Z,8.37
2019-02-09T16:00:28.125Z,8.31
2019-02-09T16:02:59.062Z,8.25
2019-02-09T16:05:29.822Z,8.18
2019-02-09T16:08:00.326Z,8.09
2019-02-09T16:10:30.938Z,8.01
2019-02-09T16:13:01.393Z,7.95
2019-02-09T16:15:32.070Z,7.89
2019-02-09T16:18:02.575Z,7.83
2019-02-09T16:20:33.101Z,7.78
2019-02-09T16:23:03.610Z,7.70
2019-02-09T16:25:34.217Z,7.63
2019-02-09T16:28:04.888Z,7.58
2019-02-09T16:30:35.356Z,7.51
2019-02-09T16:33:06.105Z,7.47
2019-02-09T16:35:36.613Z,7.44
2019-02-09T16:38:07.258Z,7.37
2019-02-09T16:40:37.953Z,7.31
2019-02-09T16:43:08.535Z,7.25
2019-02-09T16:45:39.279Z,7.16
2019-02-09T16:48:09.892Z,7.11
2019-02-09T16:50:40.393Z,6.24
2019-02-09T16:53:10.945Z,7.00
2019-02-09T16:55:41.451Z,6.94
2019-02-09T16:58:12.121Z,6.87
2019-02-09T17:00:43.998Z,6.84
2019-02-09T17:03:14.874Z,6.79
2019-02-09T17:05:45.567Z,6.74
2019-02-09T17:08:16.039Z,6.69
2019-02-09T17:10:46.596Z,6.63
2019-02-09T17:13:17.202Z,6.60
2019-02-09T17:15:47.880Z,6.54
2019-02-09T17:18:18.481Z,6.50
2019-02-09T17:20:48.988Z,6.45
2019-02-09T17:23:19.489Z,6.42
2019-02-09T17:25:49.970Z,6.37
2019-02-09T17:28:20.467Z,6.33
2019-02-09T17:30:50.917Z,6.31
2019-02-09T17:33:21.428Z,6.28
2019-02-09T17:35:51.868Z,6.25
2019-02-09T17:38:22.471Z,6.23
2019-02-09T17:40:52.940Z,6.19
2019-02-09T17:43:23.638Z,6.17
2019-02-09T17:45:57.194Z,6.12
2019-02-09T17:48:27.791Z,6.08
2019-02-09T17:50:58.251Z,6.06
2019-02-09T17:53:28.754Z,6.02
2019-02-09T17:55:59.246Z,5.99
2019-02-09T17:58:29.698Z,5.96
2019-02-09T18:01:09.897Z,5.91
2019-02-09T18:03:40.502Z,5.88
2019-02-09T18:06:11.026Z,5.83
2019-02-09T18:08:41.799Z,5.81
2019-02-09T18:11:12.294Z,5.76
2019-02-09T18:13:42.766Z,5.71
2019-02-09T18:16:13.317Z,5.67
2019-02-09T18:18:43.779Z,5.63
2019-02-09T18:21:14.286Z,5.59
2019-02-09T18:23:44.759Z,5.57
2019-02-09T18:26:15.254Z,5.54
2019-02-09T18:28:45.748Z,5.49
2019-02-09T18:31:16.251Z,5.46
2019-02-09T18:33:46.717Z,5.40
2019-02-09T18:36:17.225Z,5.38
2019-02-09T18:38:47.742Z,5.33
2019-02-09T18:41:18.208Z,5.31
2019-02-09T18:43:48.667Z,5.27
2019-02-09T18:46:19.237Z,5.23
2019-02-09T18:48:49.740Z,5.21
2019-02-09T18:51:20.221Z,5.11
2019-02-09T18:53:50.897Z,5.02
2019-02-09T18:56:21.545Z,5.01
2019-02-09T18:58:52.088Z,5.04
2019-02-09T19:01:22.593Z,5.02
2019-02-09T19:03:53.105Z,5.02
2019-02-09T19:06:23.600Z,4.21
2019-02-09T19:08:54.057Z,4.94
2019-02-09T19:11:24.549Z,4.94
2019-02-09T19:13:55.041Z,4.93
2019-02-09T19:16:25.665Z,4.88
2019-02-09T19:18:56.133Z,4.84
2019-02-09T19:21:26.752Z,4.81
2019-02-09T19:23:57.262Z,4.79
2019-02-09T19:26:27.830Z,4.79
2019-02-09T19:28:58.340Z,4.77
2019-02-09T19:31:31.449Z,4.75
2019-02-09T19:34:04.922Z,4.74
2019-02-09T19:36:35.488Z,4.74
2019-02-09T19:39:09.906Z,4.72
2019-02-09T19:41:40.420Z,4.72
2019-02-09T19:44:10.892Z,4.70
2019-02-09T19:46:41.498Z,4.68
2019-02-09T19:49:11.970Z,4.65
2019-02-09T19:51:42.428Z,4.65
2019-02-09T19:54:12.953Z,4.61
2019-02-09T19:56:43.545Z,4.58
2019-02-09T19:59:14.051Z,4.55
2019-02-09T20:01:44.514Z,4.53
2019-02-09T20:04:14.969Z,4.52
2019-02-09T20:06:45.480Z,4.44
2019-02-09T20:09:15.981Z,4.42
2019-02-09T20:11:46.494Z,4.19
2019-02-09T20:14:16.970Z,4.19
2019-02-09T20:16:47.432Z,4.21
2019-02-09T20:19:17.933Z,4.24
2019-02-09T20:21:48.438Z,4.27
2019-02-09T20:24:18.905Z,4.28
2019-02-09T20:26:49.515Z,4.29
2019-02-09T20:29:20.034Z,4.30
2019-02-09T20:31:50.523Z,4.27
2019-02-09T20:34:21.048Z,4.25
2019-02-09T20:36:51.553Z,4.23
2019-02-09T20:39:22.030Z,4.19
2019-02-09T20:41:52.552Z,4.18
2019-02-09T20:44:23.005Z,4.06
2019-02-09T20:46:53.479Z,4.06
2019-02-09T20:49:23.993Z,4.06
2019-02-09T20:51:54.459Z,4.03
2019-02-09T20:54:24.959Z,4.03
2019-02-09T20:56:55.453Z,4.00
2019-02-09T20:59:25.976Z,3.99
2019-02-09T21:01:56.415Z,3.98
2019-02-09T21:04:26.930Z,3.96
2019-02-09T21:06:57.428Z,3.94
2019-02-09T21:09:27.929Z,3.91
2019-02-09T21:11:58.386Z,3.90
2019-02-09T21:14:28.897Z,3.89
2019-02-09T21:16:59.375Z,3.88
2019-02-09T21:19:29.849Z,3.83
2019-02-09T21:22:00.365Z,3.75
2019-02-09T21:24:30.886Z,3.77
2019-02-09T21:27:01.415Z,3.76
2019-02-09T21:29:31.925Z,3.77
2019-02-09T21:32:02.453Z,3.75
2019-02-09T21:34:32.952Z,3.72
2019-02-09T21:37:03.465Z,3.72
2019-02-09T21:39:34.214Z,3.70
2019-02-09T21:42:04.826Z,3.70
2019-02-09T21:44:35.305Z,3.69
2019-02-09T21:47:05.943Z,3.71
2019-02-09T21:49:36.397Z,3.68
2019-02-09T21:52:07.004Z,3.65
2019-02-09T21:54:37.471Z,3.56
2019-02-09T21:57:07.992Z,3.49
2019-02-09T21:59:38.469Z,3.51
2019-02-09T22:02:09.095Z,3.53
2019-02-09T22:04:39.554Z,3.50
2019-02-09T22:07:10.030Z,3.51
2019-02-09T22:09:40.549Z,3.54
2019-02-09T22:12:11.112Z,3.53
2019-02-09T22:14:41.742Z,3.52
2019-02-09T22:17:12.510Z,3.39
2019-02-09T22:19:43.027Z,3.35
2019-02-09T22:22:13.547Z,3.29
2019-02-09T22:24:44.054Z,3.18
2019-02-09T22:27:14.566Z,3.20
2019-02-09T22:29:45.132Z,3.01
2019-02-09T22:32:15.597Z,2.90
2019-02-09T22:34:46.112Z,2.84
2019-02-09T22:37:16.585Z,2.83
2019-02-09T22:39:47.232Z,2.77
2019-02-09T22:42:17.784Z,2.82
2019-02-09T22:44:48.248Z,2.84
2019-02-09T22:47:18.765Z,2.70
2019-02-09T22:49:49.239Z,2.66
2019-02-09T22:52:19.743Z,2.63
2019-02-09T22:54:50.229Z,2.54
2019-02-09T22:57:20.726Z,2.56
2019-02-09T22:59:51.183Z,2.56
2019-02-09T23:02:21.806Z,2.58
2019-02-09T23:05:48.050Z,2.61
2019-02-09T23:08:18.574Z,2.58
2019-02-09T23:10:49.161Z,2.62
2019-02-09T23:13:19.671Z,2.60
2019-02-09T23:15:50.150Z,2.61
2019-02-09T23:18:20.623Z,2.69
2019-02-09T23:20:51.125Z,2.75
2019-02-09T23:23:21.684Z,2.85
2019-02-09T23:25:52.281Z,2.85
2019-02-09T23:28:22.754Z,2.75
2019-02-09T23:30:53.331Z,2.75
2019-02-09T23:33:23.810Z,2.75
2019-02-09T23:35:54.349Z,2.70
2019-02-09T23:38:24.824Z,2.54
2019-02-09T23:40:55.349Z,2.67
2019-02-09T23:43:25.936Z,2.86
2019-02-09T23:45:56.425Z,2.86
2019-02-09T23:48:26.887Z,2.47
2019-02-09T23:50:57.385Z,2.48
2019-02-09T23:53:27.894Z,2.56
2019-02-09T23:55:58.471Z,2.75
2019-02-09T23:58:28.961Z,2.75
